createdAt,value
2022-09-16T00:01:49.245Z,99567.81
2022-09-16T00:06:50.581Z,99578.69
2022-09-16T00:11:51.909Z,99566.00
2022-09-16T00:16:53.229Z,99570.19
2022-09-16T00:21:54.493Z,99560.25
2022-09-16T00:26:55.793Z,99558.56
2022-09-16T00:32:00.034Z,99559.72
2022-09-16T00:37:03.254Z,99554.31
2022-09-16T00:42:05.438Z,99559.94
2022-09-16T00:47:06.860Z,99557.19
2022-09-16T00:52:08.377Z,99557.25
2022-09-16T00:57:12.889Z,99560.25
2022-09-16T01:02:17.815Z,99554.41
2022-09-16T01:07:47.295Z,99559.84
2022-09-16T01:12:59.795Z,99563.44
2022-09-16T01:18:19.323Z,99566.81
2022-09-16T01:23:41.414Z,99571.25
2022-09-16T01:28:54.533Z,99563.88
2022-09-16T01:34:00.791Z,99551.38
2022-09-16T01:39:16.031Z,99558.44
2022-09-16T01:44:24.706Z,99568.63
2022-09-16T01:49:25.960Z,99565.00
2022-09-16T01:54:40.533Z,99573.03
2022-09-16T01:59:54.457Z,99565.50
2022-09-16T02:04:57.727Z,99555.84
2022-09-16T02:10:08.585Z,99565.06
2022-09-16T02:15:18.699Z,99551.28
2022-09-16T02:20:25.780Z,99561.63
2022-09-16T02:25:29.071Z,99559.06
2022-09-16T02:30:31.564Z,99557.63
2022-09-16T02:35:36.863Z,99571.41
2022-09-16T02:40:46.170Z,99563.03
2022-09-16T02:45:56.815Z,99566.56
2022-09-16T02:51:15.203Z,99559.19
2022-09-16T02:56:36.921Z,99559.88
2022-09-16T03:01:42.010Z,99557.16
2022-09-16T03:06:44.134Z,99560.88
2022-09-16T03:11:58.214Z,99561.22
2022-09-16T03:17:07.153Z,99549.84
2022-09-16T03:22:15.638Z,99550.91
2022-09-16T03:27:26.409Z,99550.50
2022-09-16T03:32:34.017Z,99540.81
2022-09-16T03:37:39.436Z,99537.44
2022-09-16T03:42:43.258Z,99552.19
2022-09-16T03:47:46.402Z,99545.81
2022-09-16T03:52:47.897Z,99536.56
2022-09-16T03:57:49.128Z,99536.03
2022-09-16T04:02:50.484Z,99543.44
2022-09-16T04:07:51.885Z,99543.81
2022-09-16T04:12:57.490Z,99538.28
2022-09-16T04:18:00.182Z,99533.28
2022-09-16T04:23:01.510Z,99539.44
2022-09-16T04:28:03.247Z,99526.78
2022-09-16T04:33:04.645Z,99533.13
2022-09-16T04:38:05.949Z,99533.44
2022-09-16T04:43:07.210Z,99534.81
2022-09-16T04:48:08.441Z,99544.13
2022-09-16T04:53:09.682Z,99530.44
2022-09-16T04:58:11.219Z,99534.28
2022-09-16T05:03:12.549Z,99547.22
2022-09-16T05:08:13.863Z,99542.16
2022-09-16T05:13:15.199Z,99551.72
2022-09-16T05:18:16.575Z,99556.59
2022-09-16T05:23:17.835Z,99555.75
2022-09-16T05:28:19.308Z,99549.09
2022-09-16T05:33:20.618Z,99543.91
2022-09-16T05:38:21.852Z,99545.59
2022-09-16T05:43:23.096Z,99551.28
2022-09-16T05:48:25.640Z,99535.69
2022-09-16T05:53:29.164Z,99548.06
2022-09-16T05:58:32.490Z,99545.53
2022-09-16T06:03:35.393Z,99555.22
2022-09-16T06:08:37.075Z,99553.16
2022-09-16T06:13:39.005Z,99552.16
2022-09-16T06:18:40.741Z,99545.09
2022-09-16T06:23:42.085Z,99542.03
2022-09-16T06:28:44.155Z,99539.97
2022-09-16T06:33:45.826Z,99549.69
2022-09-16T06:38:48.324Z,99547.59
2022-09-16T06:43:52.976Z,99554.41
2022-09-16T06:48:58.691Z,99541.00
2022-09-16T06:54:02.898Z,99544.50
2022-09-16T06:59:05.404Z,99541.63
2022-09-16T07:04:13.523Z,99539.47
2022-09-16T07:09:15.116Z,99532.16
2022-09-16T07:14:16.389Z,99537.97
2022-09-16T07:19:17.789Z,99546.19
2022-09-16T07:24:19.316Z,99540.09
2022-09-16T07:29:20.800Z,99547.94
2022-09-16T07:34:22.252Z,99535.81
2022-09-16T07:39:25.605Z,99547.69
2022-09-16T07:44:26.993Z,99541.69
2022-09-16T07:49:28.242Z,99539.00
2022-09-16T07:54:29.529Z,99540.69
2022-09-16T07:59:30.799Z,99549.19
2022-09-16T08:04:32.048Z,99551.34
2022-09-16T08:09:40.970Z,99546.31
2022-09-16T08:14:44.194Z,99550.34
2022-09-16T08:19:45.481Z,99562.25
2022-09-16T08:24:46.789Z,99557.09
2022-09-16T08:29:48.050Z,99563.13
2022-09-16T08:34:49.330Z,99556.91
2022-09-16T08:39:51.392Z,99558.06
2022-09-16T08:45:06.657Z,99551.72
2022-09-16T08:50:30.101Z,99558.47
2022-09-16T08:55:39.976Z,99553.19
2022-09-16T09:00:44.207Z,99556.84
2022-09-16T09:05:57.582Z,99561.78
2022-09-16T09:11:15.079Z,99556.34
2022-09-16T09:16:40.306Z,99557.81
2022-09-16T09:21:51.901Z,99555.22
2022-09-16T09:27:22.617Z,99547.94
2022-09-16T09:32:49.126Z,99541.50
2022-09-16T09:38:18.712Z,99542.78
2022-09-16T09:43:35.378Z,99540.91
2022-09-16T09:48:48.542Z,99535.00
2022-09-16T09:53:55.042Z,99544.41
2022-09-16T09:59:08.698Z,99538.25
2022-09-16T10:04:14.829Z,99529.91
2022-09-16T10:09:17.455Z,99522.22
2022-09-16T10:14:25.605Z,99522.16
2022-09-16T10:19:28.348Z,99529.63
2022-09-16T10:24:33.359Z,99528.22
2022-09-16T10:29:34.802Z,99529.09
2022-09-16T10:34:42.158Z,99529.13
2022-09-16T10:39:49.990Z,99531.50
2022-09-16T10:44:53.811Z,99532.16
2022-09-16T10:49:58.878Z,99519.81
2022-09-16T10:55:19.419Z,99524.97
2022-09-16T11:00:28.055Z,99527.03
2022-09-16T11:05:46.665Z,99523.84
2022-09-16T11:11:02.004Z,99527.81
2022-09-16T11:16:50.139Z,99512.72
2022-09-16T11:22:07.685Z,99524.81
2022-09-16T11:27:22.437Z,99523.38
2022-09-16T11:32:51.160Z,99521.84
2022-09-16T11:38:10.750Z,99517.03
2022-09-16T11:43:40.481Z,99526.34
2022-09-16T11:49:11.354Z,99523.66
2022-09-16T11:54:32.973Z,99538.56
2022-09-16T12:00:02.060Z,99558.03
2022-09-16T12:05:22.751Z,99550.78
2022-09-16T12:10:28.958Z,99559.47
2022-09-16T12:15:46.068Z,99542.72
2022-09-16T12:20:53.311Z,99530.81
2022-09-16T12:26:18.210Z,99539.09
2022-09-16T12:31:47.694Z,99525.56
2022-09-16T12:36:58.080Z,99538.00
2022-09-16T12:42:21.050Z,99526.69
2022-09-16T12:47:43.455Z,99521.31
2022-09-16T12:53:03.283Z,99516.09
2022-09-16T12:58:21.110Z,99506.25
2022-09-16T13:03:28.607Z,99498.44
2022-09-16T13:08:33.734Z,99492.09
2022-09-16T13:13:42.921Z,99483.66
2022-09-16T13:18:50.389Z,99480.84
2022-09-16T13:24:00.701Z,99485.53
2022-09-16T13:29:01.984Z,99478.63
2022-09-16T13:34:16.135Z,99479.84
2022-09-16T13:39:38.160Z,99468.56
2022-09-16T13:44:39.679Z,99482.97
2022-09-16T13:49:43.416Z,99481.19
2022-09-16T13:55:09.880Z,99480.66
2022-09-16T14:00:12.727Z,99484.25
2022-09-16T14:05:32.869Z,99475.78
2022-09-16T14:10:57.274Z,99465.34
2022-09-16T14:15:59.567Z,99455.69
2022-09-16T14:21:06.428Z,99454.41
2022-09-16T14:26:34.809Z,99450.56
2022-09-16T14:31:37.162Z,99463.47
2022-09-16T14:36:40.551Z,99453.28
2022-09-16T14:41:55.789Z,99451.66
2022-09-16T14:47:47.029Z,99451.22
2022-09-16T14:52:55.722Z,99449.16
2022-09-16T14:57:58.369Z,99455.69
2022-09-16T15:03:12.045Z,99442.22
2022-09-16T15:08:25.200Z,99464.31
2022-09-16T15:13:29.977Z,99465.69
2022-09-16T15:18:34.364Z,99476.34
2022-09-16T15:23:39.670Z,99508.59
2022-09-16T15:28:53.242Z,99501.22
2022-09-16T15:33:55.975Z,99508.66
2022-09-16T15:38:58.108Z,99517.56
2022-09-16T15:44:00.746Z,99512.06
2022-09-16T15:49:02.239Z,99510.88
2022-09-16T15:54:15.315Z,99530.69
2022-09-16T15:59:33.921Z,99531.50
2022-09-16T16:04:35.230Z,99531.44
2022-09-16T16:09:42.285Z,99536.00
2022-09-16T16:14:44.223Z,99542.97
2022-09-16T16:19:50.377Z,99537.47
2022-09-16T16:24:51.639Z,99523.09
2022-09-16T16:29:52.920Z,99526.66
2022-09-16T16:34:57.971Z,99519.00
2022-09-16T16:39:59.355Z,99508.22
2022-09-16T16:45:00.658Z,99506.72
2022-09-16T16:50:02.044Z,99514.09
2022-09-16T16:55:03.706Z,99513.91
2022-09-16T17:00:06.416Z,99512.00
2022-09-16T17:05:08.194Z,99513.19
2022-09-16T17:10:10.565Z,99522.56
2022-09-16T17:15:11.861Z,99521.06
2022-09-16T17:20:13.294Z,99517.72
2022-09-16T17:25:15.089Z,99530.44
2022-09-16T17:30:16.902Z,99545.72
2022-09-16T17:35:18.181Z,99557.94
2022-09-16T17:40:28.418Z,99559.34
2022-09-16T17:45:37.907Z,99569.78
2022-09-16T17:50:41.808Z,99576.97
2022-09-16T17:55:43.071Z,99587.50
2022-09-16T18:00:55.169Z,99599.94
2022-09-16T18:06:06.314Z,99598.72
2022-09-16T18:11:09.225Z,99605.28
2022-09-16T18:16:16.245Z,99605.25
2022-09-16T18:21:19.641Z,99603.41
2022-09-16T18:26:21.152Z,99609.44
2022-09-16T18:31:24.033Z,99608.47
2022-09-16T18:36:29.815Z,99613.66
2022-09-16T18:41:35.300Z,99631.38
2022-09-16T18:46:38.210Z,99622.69
2022-09-16T18:51:41.873Z,99630.56
2022-09-16T18:56:43.137Z,99637.59
2022-09-16T19:01:48.501Z,99635.88
2022-09-16T19:06:53.584Z,99640.34
2022-09-16T19:11:54.954Z,99644.84
2022-09-16T19:16:56.334Z,99642.44
2022-09-16T19:21:57.699Z,99630.03
2022-09-16T19:26:58.971Z,99643.50
2022-09-16T19:32:00.681Z,99630.75
2022-09-16T19:37:02.114Z,99625.75
2022-09-16T19:42:03.648Z,99632.91
2022-09-16T19:47:05.060Z,99631.44
2022-09-16T19:52:06.350Z,99644.38
2022-09-16T19:57:07.632Z,99648.53
2022-09-16T20:02:11.038Z,99642.03
2022-09-16T20:07:16.824Z,99637.03
2022-09-16T20:12:18.741Z,99634.84
2022-09-16T20:17:19.995Z,99641.31
2022-09-16T20:22:21.250Z,99646.19
2022-09-16T20:27:22.893Z,99644.38
2022-09-16T20:32:24.162Z,99662.81
2022-09-16T20:37:25.425Z,99670.16
2022-09-16T20:42:26.715Z,99658.09
2022-09-16T20:47:30.262Z,99676.25
2022-09-16T20:52:33.137Z,99678.38
2022-09-16T20:57:34.448Z,99680.88
2022-09-16T21:02:35.812Z,99683.69
2022-09-16T21:07:37.214Z,99697.53
2022-09-16T21:12:38.565Z,99694.53
2022-09-16T21:17:39.896Z,99690.91
2022-09-16T21:22:44.619Z,99696.19
2022-09-16T21:27:45.932Z,99685.06
2022-09-16T21:32:47.273Z,99682.13
2022-09-16T21:37:48.626Z,99685.81
2022-09-16T21:42:50.134Z,99697.50
2022-09-16T21:47:52.992Z,99706.56
2022-09-16T21:52:54.404Z,99711.94
2022-09-16T21:57:55.832Z,99704.13
2022-09-16T22:02:57.192Z,99702.47
2022-09-16T22:08:02.761Z,99708.50
2022-09-16T22:13:04.386Z,99723.59
2022-09-16T22:18:05.659Z,99712.22
2022-09-16T22:23:06.941Z,99719.19
2022-09-16T22:28:08.219Z,99723.00
2022-09-16T22:33:09.515Z,99712.41
2022-09-16T22:38:10.774Z,99722.06
2022-09-16T22:43:12.047Z,99720.16
2022-09-16T22:48:13.454Z,99719.72
2022-09-16T22:53:14.697Z,99703.16
2022-09-16T22:58:15.965Z,99705.75
2022-09-16T23:03:18.678Z,99705.16
2022-09-16T23:08:19.973Z,99698.88
2022-09-16T23:13:21.829Z,99697.97
2022-09-16T23:18:23.399Z,99702.16
2022-09-16T23:23:24.838Z,99699.31
2022-09-16T23:28:26.206Z,99697.25
2022-09-16T23:33:28.725Z,99691.06
2022-09-16T23:38:30.368Z,99700.22
2022-09-16T23:43:31.985Z,99698.13
2022-09-16T23:48:33.857Z,99690.53
2022-09-16T23:53:36.449Z,99688.84
2022-09-16T23:58:38.322Z,99680.97
